createdAt,value
2023-03-19T00:00:15.348Z,47.23
2023-03-19T00:07:16.967Z,47.66
2023-03-19T00:14:18.553Z,47.89
2023-03-19T00:21:20.597Z,47.19
2023-03-19T00:28:22.153Z,47.57
2023-03-19T00:35:24.289Z,47.30
2023-03-19T00:42:26.073Z,47.08
2023-03-19T00:49:27.640Z,46.98
2023-03-19T00:56:29.289Z,46.79
2023-03-19T01:03:30.839Z,46.61
2023-03-19T01:10:33.013Z,46.96
2023-03-19T01:17:34.561Z,47.67
2023-03-19T01:24:36.118Z,47.85
2023-03-19T01:31:37.691Z,47.71
2023-03-19T01:38:57.908Z,47.59
2023-03-19T01:46:35.638Z,47.19
2023-03-19T01:54:00.125Z,47.01
2023-03-19T02:01:27.907Z,47.15
2023-03-19T02:08:29.581Z,47.56
2023-03-19T02:15:31.380Z,47.78
2023-03-19T02:22:32.982Z,47.67
2023-03-19T02:29:35.098Z,47.78
2023-03-19T02:36:39.080Z,47.81
2023-03-19T02:43:41.250Z,48.17
2023-03-19T02:50:42.826Z,48.38
2023-03-19T02:57:45.476Z,47.97
2023-03-19T03:04:47.470Z,48.35
2023-03-19T03:11:49.286Z,48.39
2023-03-19T03:18:51.238Z,49.40
2023-03-19T03:25:54.158Z,49.54
2023-03-19T03:32:55.840Z,49.04
2023-03-19T03:39:58.044Z,49.66
2023-03-19T03:46:59.906Z,49.70
2023-03-19T03:54:01.700Z,49.56
2023-03-19T04:01:03.808Z,49.14
2023-03-19T04:08:07.042Z,49.48
2023-03-19T04:15:09.548Z,49.61
2023-03-19T04:22:12.771Z,50.16
2023-03-19T04:29:14.336Z,49.77
2023-03-19T04:36:17.931Z,49.52
2023-03-19T04:43:19.762Z,49.78
2023-03-19T04:50:22.045Z,49.91
2023-03-19T04:57:23.686Z,49.90
2023-03-19T05:04:28.157Z,51.32
2023-03-19T05:11:35.863Z,52.38
2023-03-19T05:18:41.399Z,53.13
2023-03-19T05:25:43.132Z,54.80
2023-03-19T05:32:48.278Z,59.07
2023-03-19T05:40:00.179Z,60.23
2023-03-19T05:47:02.380Z,62.46
2023-03-19T05:54:07.916Z,66.44
2023-03-19T06:01:12.003Z,70.51
2023-03-19T06:08:13.957Z,71.52
2023-03-19T06:15:30.516Z,70.76
2023-03-19T06:22:51.168Z,71.45
2023-03-19T06:29:53.474Z,70.71
2023-03-19T06:37:05.458Z,69.77
2023-03-19T06:44:07.342Z,71.05
2023-03-19T06:51:08.891Z,69.22
2023-03-19T06:58:10.642Z,67.34
2023-03-19T07:05:12.189Z,63.53
2023-03-19T07:12:13.705Z,64.39
2023-03-19T07:19:15.295Z,64.69
2023-03-19T07:26:17.547Z,65.78
2023-03-19T07:33:20.143Z,65.05
2023-03-19T07:40:21.711Z,65.94
2023-03-19T07:47:28.873Z,67.84
2023-03-19T07:54:31.220Z,69.41
2023-03-19T08:01:32.731Z,67.96
2023-03-19T08:08:34.952Z,65.03
2023-03-19T08:15:37.082Z,63.89
2023-03-19T08:22:38.778Z,64.30
2023-03-19T08:29:40.488Z,63.66
2023-03-19T08:36:42.011Z,64.16
2023-03-19T08:43:43.573Z,62.73
2023-03-19T08:50:45.320Z,65.54
2023-03-19T08:57:46.913Z,68.38
2023-03-19T09:04:48.532Z,73.66
2023-03-19T09:11:50.244Z,80.26
2023-03-19T09:18:51.853Z,83.81
2023-03-19T09:25:53.425Z,83.10
2023-03-19T09:32:55.011Z,83.03
2023-03-19T09:39:56.571Z,83.00
2023-03-19T09:47:23.764Z,83.83
2023-03-19T09:54:28.425Z,84.63
2023-03-19T10:01:35.326Z,84.75
2023-03-19T10:08:42.783Z,84.01
2023-03-19T10:15:44.643Z,85.39
2023-03-19T10:22:49.068Z,84.89
2023-03-19T10:29:51.127Z,85.39
2023-03-19T10:36:58.937Z,84.10
2023-03-19T10:44:03.150Z,83.77
2023-03-19T10:51:05.143Z,82.66
2023-03-19T10:58:20.266Z,82.16
2023-03-19T11:05:21.848Z,81.40
2023-03-19T11:12:37.482Z,80.19
2023-03-19T11:19:42.864Z,78.86
2023-03-19T11:26:48.751Z,75.31
2023-03-19T11:34:09.794Z,75.23
2023-03-19T11:41:30.431Z,73.16
2023-03-19T11:48:57.713Z,72.04
2023-03-19T11:56:08.950Z,73.24
2023-03-19T12:03:46.977Z,73.91
2023-03-19T12:11:02.269Z,72.65
2023-03-19T12:18:19.175Z,73.86
2023-03-19T12:25:42.909Z,74.44
2023-03-19T12:33:03.372Z,75.00
2023-03-19T12:40:28.320Z,73.98
2023-03-19T12:47:32.881Z,73.74
2023-03-19T12:54:40.093Z,73.16
2023-03-19T13:01:46.753Z,70.27
2023-03-19T13:09:05.614Z,69.54
2023-03-19T13:16:18.751Z,68.19
2023-03-19T13:23:32.452Z,64.96
2023-03-19T13:30:34.296Z,63.19
2023-03-19T13:37:36.124Z,61.11
2023-03-19T13:45:16.695Z,59.12
2023-03-19T13:52:18.228Z,60.51
2023-03-19T13:59:36.349Z,59.26
2023-03-19T14:06:42.545Z,59.46
2023-03-19T14:13:47.694Z,58.01
2023-03-19T14:21:01.516Z,56.99
2023-03-19T14:28:03.514Z,58.07
2023-03-19T14:35:05.745Z,55.50
2023-03-19T14:42:11.925Z,52.73
2023-03-19T14:49:38.298Z,51.70
2023-03-19T14:56:40.276Z,48.41
2023-03-19T15:03:42.460Z,47.00
2023-03-19T15:11:11.398Z,46.50
2023-03-19T15:18:13.135Z,46.32
2023-03-19T15:25:14.919Z,47.08
2023-03-19T15:32:49.718Z,47.96
2023-03-19T15:39:55.453Z,48.51
2023-03-19T15:46:57.042Z,48.77
2023-03-19T15:53:59.491Z,49.22
2023-03-19T16:01:01.164Z,48.60
2023-03-19T16:08:30.416Z,48.88
2023-03-19T16:15:42.602Z,49.68
2023-03-19T16:22:51.859Z,49.56
2023-03-19T16:29:57.393Z,49.50
2023-03-19T16:36:58.960Z,49.18
2023-03-19T16:44:16.071Z,49.21
2023-03-19T16:51:18.537Z,48.22
2023-03-19T16:58:31.614Z,48.90
2023-03-19T17:05:33.483Z,49.45
2023-03-19T17:12:35.105Z,48.08
2023-03-19T17:19:36.827Z,49.20
2023-03-19T17:26:38.426Z,48.70
2023-03-19T17:33:40.047Z,49.72
2023-03-19T17:40:41.816Z,50.83
2023-03-19T17:47:46.197Z,50.58
2023-03-19T17:54:47.884Z,50.71
2023-03-19T18:01:49.626Z,51.95
2023-03-19T18:08:51.349Z,51.68
2023-03-19T18:15:52.945Z,52.05
2023-03-19T18:22:54.736Z,52.62
2023-03-19T18:29:56.305Z,52.71
2023-03-19T18:36:59.050Z,52.58
2023-03-19T18:44:00.616Z,52.48
2023-03-19T18:51:02.196Z,52.10
2023-03-19T18:58:03.755Z,52.55
2023-03-19T19:05:05.654Z,53.36
2023-03-19T19:12:09.452Z,54.07
2023-03-19T19:19:16.395Z,55.34
2023-03-19T19:26:23.997Z,55.60
2023-03-19T19:33:28.223Z,55.25
2023-03-19T19:40:31.137Z,55.67
2023-03-19T19:47:34.663Z,55.95
2023-03-19T19:54:36.223Z,56.07
2023-03-19T20:01:37.922Z,55.80
2023-03-19T20:08:40.137Z,55.72
2023-03-19T20:15:41.743Z,56.60
2023-03-19T20:22:43.794Z,56.60
2023-03-19T20:29:45.569Z,57.30
2023-03-19T20:36:47.727Z,57.87
2023-03-19T20:43:50.360Z,58.01
2023-03-19T20:50:52.328Z,58.58
2023-03-19T20:57:54.469Z,57.74
2023-03-19T21:04:56.789Z,57.81
2023-03-19T21:11:58.484Z,58.49
2023-03-19T21:19:00.500Z,58.68
2023-03-19T21:26:23.072Z,59.20
2023-03-19T21:33:27.025Z,58.79
2023-03-19T21:40:29.865Z,59.32
2023-03-19T21:47:31.491Z,58.43
2023-03-19T21:54:33.201Z,58.35
2023-03-19T22:01:34.749Z,58.58
2023-03-19T22:08:36.635Z,58.58
2023-03-19T22:15:38.448Z,59.05
2023-03-19T22:22:40.016Z,59.62
2023-03-19T22:29:41.591Z,59.78
2023-03-19T22:36:43.293Z,60.41
2023-03-19T22:43:45.027Z,60.32
2023-03-19T22:50:46.618Z,60.53
2023-03-19T22:57:48.624Z,60.26
2023-03-19T23:04:50.332Z,60.91
2023-03-19T23:11:52.588Z,61.21
2023-03-19T23:25:55.932Z,61.37
2023-03-19T23:32:59.833Z,61.23
2023-03-19T23:40:01.679Z,61.30
2023-03-19T23:47:03.666Z,60.96
2023-03-19T23:54:22.314Z,61.37
